Observation data for Spur on 05/24/2019      Previous  Date  Next       Current Mesonet Observations  Soil Data  Daily Summary Page  Observations in Plain Language
KSP1 240500Z 13004KT 24/18 A2989 RMK A01 T02370179  RH  074%=      5-min Rain = 0
KSP1 240505Z 14004KT 24/18 A2989 RMK A01 T02370179  RH  074%=      5-min Rain = 0
KSP1 240510Z 14004KT 24/18 A2989 RMK A01 T02360179  RH  074%=      5-min Rain = 0
KSP1 240515Z 14005KT 24/18 A2989 RMK A01 T02350179  RH  074%=      5-min Rain = 0
KSP1 240520Z 14005KT 23/18 A2989 RMK A01 T02340179  RH  075%=      5-min Rain = 0
KSP1 240525Z 14005KT 23/18 A2989 RMK A01 T02330179  RH  076%=      5-min Rain = 0
KSP1 240530Z 15005KT 23/18 A2989 RMK A01 T02310179  RH  076%=      5-min Rain = 0
KSP1 240535Z 15006KT 23/18 A2988 RMK A01 T02300179  RH  077%=      5-min Rain = 0
KSP1 240540Z 15006KT 23/18 A2988 RMK A01 T02300179  RH  077%=      5-min Rain = 0
KSP1 240545Z 15006KT 23/18 A2988 RMK A01 T02290178  RH  077%=      5-min Rain = 0
KSP1 240550Z 15006KT 23/18 A2988 RMK A01 T02280177  RH  077%=      5-min Rain = 0
KSP1 240555Z 16007KT 23/18 A2987 RMK A01 T02290177  RH  076%=      5-min Rain = 0
KSP1 240600Z 16007KT 23/18 A2987 RMK A01 T02290176  RH  076%=      5-min Rain = 0
KSP1 240605Z 16007G13KT 23/18 A2988 RMK A01 T02290176  RH  076%=      5-min Rain = 0
KSP1 240610Z 17007KT 23/18 A2988 RMK A01 T02290176  RH  076%=      5-min Rain = 0
KSP1 240615Z 16006KT 23/18 A2988 RMK A01 T02300176  RH  075%=      5-min Rain = 0
KSP1 240620Z 17006KT 23/18 A2988 RMK A01 T02300176  RH  075%=      5-min Rain = 0
KSP1 240625Z 17005KT 23/18 A2989 RMK A01 T02310176  RH  075%=      5-min Rain = 0
KSP1 240630Z 18005G10KT 23/18 A2989 RMK A01 T02330176  RH  074%=      5-min Rain = 0
KSP1 240635Z 20004KT 23/18 A299 RMK A01 T02330176  RH  074%=      5-min Rain = 0
KSP1 240640Z 24003KT 23/18 A299 RMK A01 T02340176  RH  073%=      5-min Rain = 0
KSP1 240645Z 29004KT 23/18 A2991 RMK A01 T02340177  RH  074%=      5-min Rain = 0
KSP1 240650Z 31006KT 23/18 A2991 RMK A01 T02320179  RH  076%=      5-min Rain = 0
KSP1 240655Z 30009G17KT 23/18 A2992 RMK A01 T02290177  RH  076%=      5-min Rain = 0
KSP1 240700Z 32013G18KT 22/16 A2992 RMK A01 T02240159  RH  070%=      5-min Rain = 0
KSP1 240705Z 33010G15KT 22/15 A2993 RMK A01 T02200153  RH  069%=      5-min Rain = 0
KSP1 240710Z 33006KT 22/16 A2992 RMK A01 T02200156  RH  070%=      5-min Rain = 0
KSP1 240715Z 31009G17KT 22/15 A2992 RMK A01 T02210145  RH  065%=      5-min Rain = 0
KSP1 240720Z 33013KT 21/14 A2992 RMK A01 T02130136  RH  064%=      5-min Rain = 0
KSP1 240725Z 33009KT 21/14 A2993 RMK A01 T02090135  RH  066%=      5-min Rain = 0
KSP1 240730Z 34006KT 21/14 A2992 RMK A01 T02070137  RH  067%=      5-min Rain = 0
KSP1 240735Z 32005KT 21/14 A2993 RMK A01 T02050139  RH  069%=      5-min Rain = 0
KSP1 240740Z 31004KT 20/14 A2993 RMK A01 T02040141  RH  070%=      5-min Rain = 0
KSP1 240745Z 35005KT 20/15 A2993 RMK A01 T02000146  RH  074%=      5-min Rain = 0
KSP1 240750Z 36005KT 20/15 A2993 RMK A01 T01950151  RH  079%=      5-min Rain = 0
KSP1 240755Z 33005KT 19/15 A2993 RMK A01 T01910153  RH  082%=      5-min Rain = 0
KSP1 240800Z 34003KT 19/15 A2993 RMK A01 T01890153  RH  083%=      5-min Rain = 0
KSP1 240805Z 35004KT 19/16 A2992 RMK A01 T01890155  RH  085%=      5-min Rain = 0
KSP1 240810Z 35005KT 19/16 A2992 RMK A01 T01890156  RH  085%=      5-min Rain = 0
KSP1 240815Z 01005KT 19/16 A2992 RMK A01 T01880157  RH  086%=      5-min Rain = 0
KSP1 240820Z 01004KT 19/16 A2992 RMK A01 T01880156  RH  086%=      5-min Rain = 0
KSP1 240825Z 02003KT 19/16 A2992 RMK A01 T01890156  RH  085%=      5-min Rain = 0
KSP1 240830Z 01004KT 19/16 A2992 RMK A01 T01890156  RH  085%=      5-min Rain = 0.01
KSP1 240835Z 36004KT 19/16 A2992 RMK A01 T01880157  RH  086%=      5-min Rain = 0
KSP1 240840Z 36003KT 19/16 A2992 RMK A01 T01880159  RH  087%=      5-min Rain = 0
KSP1 240845Z 36003KT 19/16 A2991 RMK A01 T01860158  RH  088%=      5-min Rain = 0
KSP1 240850Z 33004KT 19/16 A2991 RMK A01 T01870159  RH  088%=      5-min Rain = 0.01
KSP1 240855Z 35003KT 19/16 A2991 RMK A01 T01860160  RH  089%=      5-min Rain = 0
KSP1 240900Z 00005KT 19/16 A2991 RMK A01 T01860160  RH  089%=      5-min Rain = 0
KSP1 240905Z 14002KT 19/16 A2991 RMK A01 T01860159  RH  088%=      5-min Rain = 0
KSP1 240910Z 07002KT 19/16 A2991 RMK A01 T01860159  RH  089%=      5-min Rain = 0
KSP1 240915Z 02001KT 19/16 A2991 RMK A01 T01860161  RH  089%=      5-min Rain = 0
KSP1 240920Z 01001KT 19/16 A2991 RMK A01 T01870162  RH  090%=      5-min Rain = 0
KSP1 240925Z 07001KT 19/16 A2991 RMK A01 T01860162  RH  090%=      5-min Rain = 0
KSP1 240930Z 10002KT 19/16 A2991 RMK A01 T01880163  RH  090%=      5-min Rain = 0
KSP1 240935Z 10002KT 19/16 A2991 RMK A01 T01880163  RH  090%=      5-min Rain = 0
KSP1 240940Z 11002KT 19/17 A2991 RMK A01 T01890165  RH  090%=      5-min Rain = 0
KSP1 240945Z 09003KT 19/17 A2991 RMK A01 T01890166  RH  090%=      5-min Rain = 0
KSP1 240950Z 09003KT 19/17 A2991 RMK A01 T01890165  RH  090%=      5-min Rain = 0
KSP1 240955Z 07003KT 19/17 A2991 RMK A01 T01890165  RH  090%=      5-min Rain = 0
KSP1 241000Z 07004KT 19/16 A2991 RMK A01 T01890164  RH  090%=      5-min Rain = 0
KSP1 241005Z 07004KT 19/16 A2991 RMK A01 T01880164  RH  090%=      5-min Rain = 0
KSP1 241010Z 06003KT 19/16 A2992 RMK A01 T01880164  RH  090%=      5-min Rain = 0
KSP1 241015Z 04003KT 19/17 A2992 RMK A01 T01880165  RH  091%=      5-min Rain = 0
KSP1 241020Z 02004KT 19/17 A2992 RMK A01 T01880165  RH  091%=      5-min Rain = 0
KSP1 241025Z 02004KT 19/17 A2993 RMK A01 T01890166  RH  091%=      5-min Rain = 0
KSP1 241030Z 01004KT 19/17 A2993 RMK A01 T01880166  RH  091%=      5-min Rain = 0
KSP1 241035Z 00004KT 19/17 A2993 RMK A01 T01890166  RH  091%=      5-min Rain = 0
KSP1 241040Z 01004KT 19/17 A2993 RMK A01 T01900167  RH  091%=      5-min Rain = 0
KSP1 241045Z 02004KT 19/17 A2993 RMK A01 T01910168  RH  091%=      5-min Rain = 0
KSP1 241050Z 03003KT 19/17 A2993 RMK A01 T01920168  RH  091%=      5-min Rain = 0
KSP1 241055Z 01002KT 19/17 A2993 RMK A01 T01920169  RH  091%=      5-min Rain = 0
KSP1 241100Z 03002KT 19/17 A2993 RMK A01 T01920168  RH  090%=      5-min Rain = 0
KSP1 241105Z 04003KT 19/17 A2993 RMK A01 T01920167  RH  090%=      5-min Rain = 0
KSP1 241110Z 05004KT 19/17 A2993 RMK A01 T01920167  RH  090%=      5-min Rain = 0
KSP1 241115Z 05004KT 19/17 A2993 RMK A01 T01920167  RH  090%=      5-min Rain = 0
KSP1 241120Z 04004KT 19/17 A2993 RMK A01 T01920168  RH  090%=      5-min Rain = 0
KSP1 241125Z 03003KT 19/17 A2993 RMK A01 T01920168  RH  090%=      5-min Rain = 0
KSP1 241130Z 03003KT 19/17 A2993 RMK A01 T01930169  RH  090%=      5-min Rain = 0
KSP1 241135Z 04003KT 19/17 A2993 RMK A01 T01930169  RH  090%=      5-min Rain = 0
KSP1 241140Z 04003KT 19/17 A2993 RMK A01 T01930170  RH  090%=      5-min Rain = 0
KSP1 241145Z 05004KT 19/17 A2993 RMK A01 T01940170  RH  091%=      5-min Rain = 0
KSP1 241150Z 06004KT 19/17 A2993 RMK A01 T01940170  RH  091%=      5-min Rain = 0
KSP1 241155Z 05004KT 19/17 A2993 RMK A01 T01940171  RH  091%=      5-min Rain = 0
KSP1 241200Z 06004KT 20/17 A2994 RMK A01 T01950171  RH  090%=      5-min Rain = 0
KSP1 241205Z 06004KT 20/17 A2994 RMK A01 T01950171  RH  090%=      5-min Rain = 0
KSP1 241210Z 08004KT 20/17 A2994 RMK A01 T01960172  RH  091%=      5-min Rain = 0
KSP1 241215Z 07006KT 20/17 A2994 RMK A01 T01960172  RH  091%=      5-min Rain = 0
KSP1 241220Z 07005KT 20/17 A2994 RMK A01 T01960172  RH  091%=      5-min Rain = 0
KSP1 241225Z 07006KT 20/17 A2994 RMK A01 T01960172  RH  091%=      5-min Rain = 0
KSP1 241230Z 07006KT 20/17 A2994 RMK A01 T01950171  RH  090%=      5-min Rain = 0
KSP1 241235Z 07006KT 20/17 A2994 RMK A01 T01950171  RH  090%=      5-min Rain = 0
KSP1 241240Z 08005KT 20/17 A2994 RMK A01 T01950172  RH  091%=      5-min Rain = 0
KSP1 241245Z 07005KT 20/17 A2994 RMK A01 T01960173  RH  091%=      5-min Rain = 0
KSP1 241250Z 07005KT 20/17 A2994 RMK A01 T01960173  RH  091%=      5-min Rain = 0
KSP1 241255Z 07006KT 20/17 A2994 RMK A01 T01950173  RH  091%=      5-min Rain = 0
KSP1 241300Z 07006KT 20/17 A2994 RMK A01 T01960174  RH  092%=      5-min Rain = 0
KSP1 241305Z 07005KT 20/17 A2994 RMK A01 T01960174  RH  092%=      5-min Rain = 0
KSP1 241310Z 08005KT 20/18 A2994 RMK A01 T01970175  RH  092%=      5-min Rain = 0
KSP1 241315Z 08004KT 20/18 A2994 RMK A01 T01980177  RH  092%=      5-min Rain = 0
KSP1 241320Z 09005KT 20/18 A2994 RMK A01 T02000179  RH  092%=      5-min Rain = 0
KSP1 241325Z 10005KT 20/18 A2994 RMK A01 T02020181  RH  092%=      5-min Rain = 0
KSP1 241330Z 10006KT 20/18 A2994 RMK A01 T02040182  RH  092%=      5-min Rain = 0
KSP1 241335Z 10004KT 21/18 A2994 RMK A01 T02050184  RH  092%=      5-min Rain = 0
KSP1 241340Z 11004KT 21/19 A2994 RMK A01 T02070185  RH  092%=      5-min Rain = 0
KSP1 241345Z 11004KT 21/19 A2994 RMK A01 T02080187  RH  092%=      5-min Rain = 0
KSP1 241350Z 11004KT 21/19 A2994 RMK A01 T02100189  RH  093%=      5-min Rain = 0
KSP1 241355Z 13005KT 21/19 A2995 RMK A01 T02120190  RH  092%=      5-min Rain = 0
KSP1 241400Z 13005KT 21/19 A2995 RMK A01 T02120190  RH  092%=      5-min Rain = 0
KSP1 241405Z 13005KT 21/19 A2995 RMK A01 T02130190  RH  092%=      5-min Rain = 0
KSP1 241410Z 14005KT 21/19 A2995 RMK A01 T02140192  RH  092%=      5-min Rain = 0
KSP1 241415Z 14005KT 22/19 A2995 RMK A01 T02150192  RH  092%=      5-min Rain = 0
KSP1 241420Z 15006KT 22/19 A2995 RMK A01 T02160193  RH  091%=      5-min Rain = 0
KSP1 241425Z 14006KT 22/19 A2995 RMK A01 T02170192  RH  091%=      5-min Rain = 0
KSP1 241430Z 14006KT 22/19 A2995 RMK A01 T02190193  RH  090%=      5-min Rain = 0
KSP1 241435Z 13006G11KT 22/19 A2995 RMK A01 T02230194  RH  089%=      5-min Rain = 0
KSP1 241440Z 14008G13KT 23/19 A2995 RMK A01 T02250193  RH  087%=      5-min Rain = 0
KSP1 241445Z 15008KT 23/19 A2995 RMK A01 T02250191  RH  086%=      5-min Rain = 0
KSP1 241450Z 15008G15KT 23/19 A2995 RMK A01 T02250191  RH  086%=      5-min Rain = 0
KSP1 241455Z 15010KT 23/19 A2995 RMK A01 T02250190  RH  085%=      5-min Rain = 0
KSP1 241500Z 15009KT 22/19 A2995 RMK A01 T02240190  RH  086%=      5-min Rain = 0
KSP1 241505Z 14008KT 22/19 A2995 RMK A01 T02240191  RH  086%=      5-min Rain = 0
KSP1 241510Z 15008G13KT 22/19 A2995 RMK A01 T02240191  RH  086%=      5-min Rain = 0
KSP1 241515Z 15010KT 22/19 A2995 RMK A01 T02240190  RH  086%=      5-min Rain = 0
KSP1 241520Z 14009KT 22/19 A2995 RMK A01 T02240191  RH  086%=      5-min Rain = 0
KSP1 241525Z 14009KT 23/19 A2995 RMK A01 T02250192  RH  086%=      5-min Rain = 0
KSP1 241530Z 15009KT 23/19 A2995 RMK A01 T02280193  RH  085%=      5-min Rain = 0
KSP1 241535Z 15010G15KT 23/19 A2995 RMK A01 T02300193  RH  084%=      5-min Rain = 0
KSP1 241540Z 15010G15KT 23/19 A2995 RMK A01 T02330194  RH  084%=      5-min Rain = 0
KSP1 241545Z 15011G17KT 24/19 A2995 RMK A01 T02350194  RH  083%=      5-min Rain = 0
KSP1 241550Z 15011G16KT 24/19 A2995 RMK A01 T02360193  RH  082%=      5-min Rain = 0
KSP1 241555Z 15011G17KT 24/19 A2995 RMK A01 T02350193  RH  081%=      5-min Rain = 0
KSP1 241600Z 16011G17KT 24/19 A2995 RMK A01 T02350194  RH  082%=      5-min Rain = 0
KSP1 241605Z 16010G15KT 24/19 A2995 RMK A01 T02360194  RH  082%=      5-min Rain = 0
KSP1 241610Z 16010G15KT 24/19 A2995 RMK A01 T02370194  RH  082%=      5-min Rain = 0
KSP1 241615Z 15009G16KT 24/20 A2995 RMK A01 T02370195  RH  082%=      5-min Rain = 0
KSP1 241620Z 16011KT 24/19 A2995 RMK A01 T02370193  RH  081%=      5-min Rain = 0
KSP1 241625Z 16008G13KT 24/20 A2995 RMK A01 T02370195  RH  082%=      5-min Rain = 0
KSP1 241630Z 16008KT 24/20 A2995 RMK A01 T02380196  RH  082%=      5-min Rain = 0
KSP1 241635Z 15010KT 24/20 A2995 RMK A01 T02390196  RH  081%=      5-min Rain = 0
KSP1 241640Z 17010G15KT 24/20 A2995 RMK A01 T02410197  RH  081%=      5-min Rain = 0
KSP1 241645Z 16011G17KT 24/19 A2995 RMK A01 T02420193  RH  078%=      5-min Rain = 0
KSP1 241650Z 16011G16KT 24/19 A2995 RMK A01 T02410192  RH  078%=      5-min Rain = 0
KSP1 241655Z 16012G18KT 24/19 A2995 RMK A01 T02400192  RH  079%=      5-min Rain = 0
KSP1 241700Z 16012G17KT 24/19 A2995 RMK A01 T02410192  RH  079%=      5-min Rain = 0
KSP1 241705Z 16010G15KT 25/20 A2995 RMK A01 T02450196  RH  078%=      5-min Rain = 0
KSP1 241710Z 16012KT 25/20 A2995 RMK A01 T02470195  RH  077%=      5-min Rain = 0
KSP1 241715Z 16011G16KT 25/20 A2995 RMK A01 T02520198  RH  076%=      5-min Rain = 0
KSP1 241720Z 17011KT 26/20 A2995 RMK A01 T02590199  RH  074%=      5-min Rain = 0
KSP1 241725Z 17011KT 25/20 A2995 RMK A01 T02540196  RH  074%=      5-min Rain = 0
KSP1 241730Z 16010G16KT 25/20 A2995 RMK A01 T02500195  RH  076%=      5-min Rain = 0
KSP1 241735Z 17011G17KT 25/19 A2995 RMK A01 T02480194  RH  076%=      5-min Rain = 0
KSP1 241740Z 16010KT 25/20 A2995 RMK A01 T02500196  RH  076%=      5-min Rain = 0
KSP1 241745Z 16011KT 25/20 A2995 RMK A01 T02540198  RH  075%=      5-min Rain = 0
KSP1 241750Z 16009G14KT 26/20 A2995 RMK A01 T02580199  RH  074%=      5-min Rain = 0
KSP1 241755Z 15010G15KT 26/20 A2995 RMK A01 T02600199  RH  073%=      5-min Rain = 0
KSP1 241800Z 16009G14KT 26/20 A2994 RMK A01 T02570198  RH  074%=      5-min Rain = 0
KSP1 241805Z 16010KT 26/20 A2994 RMK A01 T02560197  RH  074%=      5-min Rain = 0
KSP1 241810Z 16010G17KT 26/20 A2994 RMK A01 T02560197  RH  074%=      5-min Rain = 0
KSP1 241815Z 16011KT 26/20 A2993 RMK A01 T02580196  RH  073%=      5-min Rain = 0
KSP1 241820Z 16011G16KT 26/20 A2993 RMK A01 T02580198  RH  073%=      5-min Rain = 0
KSP1 241825Z 15011G16KT 26/20 A2993 RMK A01 T02630200  RH  072%=      5-min Rain = 0
KSP1 241830Z 15013KT 26/20 A2992 RMK A01 T02620198  RH  072%=      5-min Rain = 0
KSP1 241835Z 15012G17KT 26/20 A2992 RMK A01 T02620198  RH  072%=      5-min Rain = 0
KSP1 241840Z 15012G18KT 26/20 A2992 RMK A01 T02630200  RH  072%=      5-min Rain = 0
KSP1 241845Z 15012G18KT 26/20 A2992 RMK A01 T02610199  RH  073%=      5-min Rain = 0
KSP1 241850Z 14011G16KT 26/20 A2991 RMK A01 T02640202  RH  073%=      5-min Rain = 0
KSP1 241855Z 15011G18KT 26/20 A2991 RMK A01 T02640200  RH  072%=      5-min Rain = 0
KSP1 241900Z 15011G18KT 26/20 A2991 RMK A01 T02600198  RH  073%=      5-min Rain = 0
KSP1 241905Z 16012G17KT 26/20 A2992 RMK A01 T02620198  RH  072%=      5-min Rain = 0
KSP1 241910Z 15013G18KT 26/20 A2992 RMK A01 T02620197  RH  072%=      5-min Rain = 0
KSP1 241915Z 15012G17KT 26/20 A2991 RMK A01 T02620197  RH  072%=      5-min Rain = 0
KSP1 241920Z 15012G19KT 27/20 A2991 RMK A01 T02650200  RH  072%=      5-min Rain = 0
KSP1 241925Z 16012G18KT 27/20 A2991 RMK A01 T02690201  RH  070%=      5-min Rain = 0
KSP1 241930Z 16012G18KT 27/20 A2991 RMK A01 T02730200  RH  068%=      5-min Rain = 0
KSP1 241935Z 17013G18KT 27/20 A2991 RMK A01 T02680195  RH  068%=      5-min Rain = 0
KSP1 241940Z 16013G19KT 27/20 A299 RMK A01 T02680197  RH  069%=      5-min Rain = 0
KSP1 241945Z 15014G20KT 27/20 A2989 RMK A01 T02730200  RH  069%=      5-min Rain = 0
KSP1 241950Z 15015G22KT 27/20 A2989 RMK A01 T02720198  RH  067%=      5-min Rain = 0
KSP1 241955Z 15015KT 27/19 A2988 RMK A01 T02660194  RH  069%=      5-min Rain = 0
KSP1 242000Z 16013G18KT 26/20 A2989 RMK A01 T02630195  RH  070%=      5-min Rain = 0
KSP1 242005Z 16013G19KT 26/19 A2989 RMK A01 T02610194  RH  070%=      5-min Rain = 0
KSP1 242010Z 16013G20KT 26/20 A2989 RMK A01 T02640195  RH  070%=      5-min Rain = 0
KSP1 242015Z 16015G20KT 27/20 A2988 RMK A01 T02650195  RH  069%=      5-min Rain = 0
KSP1 242020Z 16016G23KT 27/19 A2988 RMK A01 T02680194  RH  068%=      5-min Rain = 0
KSP1 242025Z 16015G21KT 27/20 A2988 RMK A01 T02690196  RH  068%=      5-min Rain = 0
KSP1 242030Z 16016G23KT 27/20 A2988 RMK A01 T02710195  RH  067%=      5-min Rain = 0
KSP1 242035Z 16016G24KT 27/20 A2987 RMK A01 T02710196  RH  067%=      5-min Rain = 0
KSP1 242040Z 16015G20KT 27/19 A2988 RMK A01 T02660194  RH  069%=      5-min Rain = 0
KSP1 242045Z 16011G16KT 26/20 A2988 RMK A01 T02610196  RH  071%=      5-min Rain = 0
KSP1 242050Z 16014G26KT 26/20 A2987 RMK A01 T02600195  RH  071%=      5-min Rain = 0
KSP1 242055Z 16016G23KT 26/19 A2986 RMK A01 T02590192  RH  070%=      5-min Rain = 0
KSP1 242100Z 16015G22KT 26/19 A2986 RMK A01 T02580192  RH  071%=      5-min Rain = 0
KSP1 242105Z 16014G22KT 26/19 A2986 RMK A01 T02560192  RH  071%=      5-min Rain = 0
KSP1 242110Z 16015G22KT 25/19 A2986 RMK A01 T02540192  RH  072%=      5-min Rain = 0
KSP1 242115Z 16014G20KT 25/19 A2987 RMK A01 T02540191  RH  072%=      5-min Rain = 0
KSP1 242120Z 16015G21KT 25/19 A2987 RMK A01 T02530191  RH  072%=      5-min Rain = 0
KSP1 242125Z 16011G19KT 25/19 A2988 RMK A01 T02530191  RH  073%=      5-min Rain = 0
KSP1 242130Z 16015G22KT 25/19 A2988 RMK A01 T02520190  RH  072%=      5-min Rain = 0
KSP1 242135Z 16013G20KT 25/19 A2987 RMK A01 T02530189  RH  072%=      5-min Rain = 0
KSP1 242140Z 17015G22KT 25/19 A2987 RMK A01 T02540189  RH  071%=      5-min Rain = 0
KSP1 242145Z 16016G24KT 25/19 A2986 RMK A01 T02540188  RH  071%=      5-min Rain = 0
KSP1 242150Z 17014G21KT 25/19 A2986 RMK A01 T02540189  RH  071%=      5-min Rain = 0
KSP1 242155Z 17016G25KT 26/19 A2985 RMK A01 T02560189  RH  070%=      5-min Rain = 0
KSP1 242200Z 17014G20KT 26/19 A2985 RMK A01 T02590189  RH  069%=      5-min Rain = 0
KSP1 242205Z 20011G21KT 26/19 A2986 RMK A01 T02600189  RH  069%=      5-min Rain = 0
KSP1 242210Z 26007G14KT 24/16 A2987 RMK A01 T02380157  RH  063%=      5-min Rain = 0
KSP1 242215Z 26004KT 22/15 A2987 RMK A01 T02180154  RH  070%=      5-min Rain = 0
KSP1 242220Z 04012KT 21/15 A2988 RMK A01 T02070148  RH  072%=      5-min Rain = 0
KSP1 242225Z 04012KT 20/15 A2987 RMK A01 T02010146  RH  074%=      5-min Rain = 0
KSP1 242230Z 06006KT 20/15 A2988 RMK A01 T01980146  RH  075%=      5-min Rain = 0
KSP1 242235Z 02005KT 20/15 A2989 RMK A01 T01960145  RH  075%=      5-min Rain = 0
KSP1 242240Z 04006KT 20/15 A2988 RMK A01 T01960146  RH  076%=      5-min Rain = 0
KSP1 242245Z 04009KT 20/15 A2987 RMK A01 T01960148  RH  077%=      5-min Rain = 0
KSP1 242250Z 05009G14KT 20/15 A2988 RMK A01 T01950149  RH  078%=      5-min Rain = 0
KSP1 242255Z 03009G16KT 19/15 A2988 RMK A01 T01940149  RH  079%=      5-min Rain = 0
KSP1 242300Z 02012KT 19/15 A2988 RMK A01 T01920148  RH  079%=      5-min Rain = 0
KSP1 242305Z 02010KT 19/15 A2988 RMK A01 T01900148  RH  080%=      5-min Rain = 0
KSP1 242310Z 03009G15KT 19/15 A2988 RMK A01 T01890148  RH  081%=      5-min Rain = 0
KSP1 242315Z 01010KT 19/15 A2989 RMK A01 T01890149  RH  081%=      5-min Rain = 0
KSP1 242320Z 00009KT 19/15 A2989 RMK A01 T01900150  RH  081%=      5-min Rain = 0
KSP1 242325Z 01009KT 19/15 A2988 RMK A01 T01920151  RH  081%=      5-min Rain = 0
KSP1 242330Z 02007KT 19/15 A2988 RMK A01 T01920152  RH  081%=      5-min Rain = 0
KSP1 242335Z 01007G13KT 19/15 A2989 RMK A01 T01930153  RH  081%=      5-min Rain = 0
KSP1 242340Z 00007KT 19/15 A2989 RMK A01 T01940152  RH  080%=      5-min Rain = 0
KSP1 242345Z 01009KT 19/15 A2989 RMK A01 T01940153  RH  081%=      5-min Rain = 0
KSP1 242350Z 01007KT 19/15 A2989 RMK A01 T01940153  RH  081%=      5-min Rain = 0
KSP1 242355Z 04006KT 19/15 A2988 RMK A01 T01940154  RH  081%=      5-min Rain = 0
KSP1 250000Z 05006KT 20/16 A2988 RMK A01 T01950155  RH  081%=      5-min Rain = 0
KSP1 250005Z 05006KT 20/16 A2987 RMK A01 T01960155  RH  081%=      5-min Rain = 0
KSP1 250010Z 05006KT 20/16 A2987 RMK A01 T01960155  RH  081%=      5-min Rain = 0
KSP1 250015Z 03005KT 20/16 A2988 RMK A01 T01970155  RH  081%=      5-min Rain = 0
KSP1 250020Z 02006KT 20/16 A2988 RMK A01 T01980156  RH  080%=      5-min Rain = 0
KSP1 250025Z 00005KT 20/16 A2988 RMK A01 T01980156  RH  080%=      5-min Rain = 0
KSP1 250030Z 01006KT 20/16 A2988 RMK A01 T01990157  RH  080%=      5-min Rain = 0
KSP1 250035Z 02005KT 20/16 A2988 RMK A01 T02000157  RH  080%=      5-min Rain = 0
KSP1 250040Z 04004KT 20/16 A2988 RMK A01 T02010157  RH  080%=      5-min Rain = 0
KSP1 250045Z 05006KT 20/16 A2989 RMK A01 T02020158  RH  079%=      5-min Rain = 0
KSP1 250050Z 07006KT 20/16 A2989 RMK A01 T01990157  RH  080%=      5-min Rain = 0
KSP1 250055Z 06004KT 20/16 A2989 RMK A01 T01970156  RH  081%=      5-min Rain = 0
KSP1 250100Z 05006KT 20/16 A299 RMK A01 T01960157  RH  082%=      5-min Rain = 0
KSP1 250105Z 06005KT 20/16 A299 RMK A01 T01950157  RH  083%=      5-min Rain = 0
KSP1 250110Z 05007KT 19/16 A2991 RMK A01 T01930156  RH  083%=      5-min Rain = 0
KSP1 250115Z 04007KT 19/16 A2991 RMK A01 T01920156  RH  084%=      5-min Rain = 0
KSP1 250120Z 05007KT 19/16 A2991 RMK A01 T01920157  RH  084%=      5-min Rain = 0
KSP1 250125Z 05007KT 19/16 A2991 RMK A01 T01910157  RH  085%=      5-min Rain = 0
KSP1 250130Z 05007KT 19/16 A2991 RMK A01 T01910158  RH  085%=      5-min Rain = 0
KSP1 250135Z 05006KT 19/16 A2991 RMK A01 T01910159  RH  085%=      5-min Rain = 0
KSP1 250140Z 05006KT 19/16 A2991 RMK A01 T01910159  RH  085%=      5-min Rain = 0
KSP1 250145Z 06006KT 19/16 A2991 RMK A01 T01910159  RH  085%=      5-min Rain = 0
KSP1 250150Z 06006KT 19/16 A299 RMK A01 T01910159  RH  085%=      5-min Rain = 0
KSP1 250155Z 05007KT 19/16 A299 RMK A01 T01900159  RH  086%=      5-min Rain = 0
KSP1 250200Z 05007KT 19/16 A299 RMK A01 T01900159  RH  086%=      5-min Rain = 0
KSP1 250205Z 05007KT 19/16 A299 RMK A01 T01900159  RH  086%=      5-min Rain = 0
KSP1 250210Z 05006KT 19/16 A299 RMK A01 T01900159  RH  086%=      5-min Rain = 0
KSP1 250215Z 05005KT 19/16 A299 RMK A01 T01900159  RH  086%=      5-min Rain = 0
KSP1 250220Z 04004KT 19/16 A299 RMK A01 T01900159  RH  086%=      5-min Rain = 0
KSP1 250225Z 06003KT 19/16 A299 RMK A01 T01900159  RH  086%=      5-min Rain = 0
KSP1 250230Z 06003KT 19/16 A299 RMK A01 T01900159  RH  086%=      5-min Rain = 0
KSP1 250235Z 06002KT 19/16 A299 RMK A01 T01900158  RH  086%=      5-min Rain = 0
KSP1 250240Z 05003KT 19/16 A299 RMK A01 T01890158  RH  086%=      5-min Rain = 0
KSP1 250245Z 06004KT 19/16 A299 RMK A01 T01880157  RH  086%=      5-min Rain = 0
KSP1 250250Z 05006KT 19/16 A2991 RMK A01 T01870157  RH  087%=      5-min Rain = 0
KSP1 250255Z 05007KT 19/16 A2991 RMK A01 T01860157  RH  087%=      5-min Rain = 0
KSP1 250300Z 04008KT 19/16 A2991 RMK A01 T01850157  RH  088%=      5-min Rain = 0
KSP1 250305Z 04008KT 18/16 A2992 RMK A01 T01840158  RH  088%=      5-min Rain = 0
KSP1 250310Z 05009KT 18/16 A2992 RMK A01 T01830158  RH  089%=      5-min Rain = 0
KSP1 250315Z 05010KT 18/16 A2992 RMK A01 T01820158  RH  090%=      5-min Rain = 0
KSP1 250320Z 05009KT 18/16 A2992 RMK A01 T01810158  RH  090%=      5-min Rain = 0
KSP1 250325Z 06009G14KT 18/16 A2993 RMK A01 T01800158  RH  091%=      5-min Rain = 0
KSP1 250330Z 06009G14KT 18/16 A2993 RMK A01 T01790158  RH  091%=      5-min Rain = 0
KSP1 250335Z 06009KT 18/16 A2994 RMK A01 T01790158  RH  092%=      5-min Rain = 0
KSP1 250340Z 06008KT 18/16 A2995 RMK A01 T01790158  RH  092%=      5-min Rain = 0
KSP1 250345Z 06009KT 18/16 A2995 RMK A01 T01780158  RH  092%=      5-min Rain = 0
KSP1 250350Z 06009KT 18/16 A2995 RMK A01 T01770158  RH  093%=      5-min Rain = 0
KSP1 250355Z 05009KT 18/16 A2995 RMK A01 T01770158  RH  093%=      5-min Rain = 0
KSP1 250400Z 05009KT 18/16 A2995 RMK A01 T01760158  RH  093%=      5-min Rain = 0
KSP1 250405Z 06009KT 18/16 A2995 RMK A01 T01760158  RH  094%=      5-min Rain = 0
KSP1 250410Z 06008KT 18/16 A2996 RMK A01 T01750158  RH  094%=      5-min Rain = 0
KSP1 250415Z 06008KT 17/16 A2996 RMK A01 T01740157  RH  094%=      5-min Rain = 0
KSP1 250420Z 08006KT 17/16 A2996 RMK A01 T01740157  RH  094%=      5-min Rain = 0
KSP1 250425Z 08007KT 17/16 A2996 RMK A01 T01740156  RH  094%=      5-min Rain = 0
KSP1 250430Z 06006KT 17/16 A2996 RMK A01 T01740155  RH  093%=      5-min Rain = 0
KSP1 250435Z 08004KT 17/16 A2996 RMK A01 T01740155  RH  093%=      5-min Rain = 0
KSP1 250440Z 07004KT 17/16 A2996 RMK A01 T01740155  RH  093%=      5-min Rain = 0
KSP1 250445Z 07004G9KT 17/15 A2996 RMK A01 T01740154  RH  092%=      5-min Rain = 0
KSP1 250450Z 06005KT 18/16 A2997 RMK A01 T01750155  RH  092%=      5-min Rain = 0
KSP1 250455Z 06003KT 18/16 A2997 RMK A01 T01750155  RH  092%=      5-min Rain = 0

Page generated in 0.0106 seconds.